Divide, MT (59727)

00:36 MDT le 03 août 2015 (GMT -0600)
Mooney | | Change Station
CLOSE
Current Station
Aéroport
Location: Butte,
Altitude: 5545 ft
Stations météo à proximité

Alt. 5545 ft 45.95 °N, 112.50 °W | Updated 43 minutes ago

Partiellement nuageux
Partiellement nuageux
62 ° F
Paraît 62 ° F
N
7
Vent Variable Vent de SE

Aujourd'hui
Haut(e) -- | Bas -- ° F
--% Risque de précip.
Hier
Haut(e) -- | Bas -- ° F
Precip. -- pouce
6:16 AM 8:57 PM
Lune gibbeuse décroissante, 89% visible
Pression 29.90 pouce
Visibilité 10.0 Miles terrestres
Nuages Ciel dégagé
Point de rosée 36 ° F
Humidité 38%
Précipitations 0.00 pouce
Profondeur de la couche neigeuse Non disponible.
UV 0 sur 12
Pollen 5.20 sur 12
Qualité de l'air Non disponible.
Flu Activity Non disponible.
METAR KBTM 030553Z AUTO 13006KT 10SM CLR 17/02 A3008 RMK AO2 SLP123 T01670022 10317 20167 51006

More Conditions Fewer Conditions

Pression 29.90 pouce
Visibilité 10.0 Miles terrestres
Nuages Ciel dégagé
Point de rosée 36 ° F
Humidité 38%
Précipitations 0.00 pouce
Profondeur de la couche neigeuse Non disponible.
UV 0 sur 12
Pollen 5.20 sur 12
Qualité de l'air Non disponible.
Flu Activity Non disponible.
METAR KBTM 030553Z AUTO 13006KT 10SM CLR 17/02 A3008 RMK AO2 SLP123 T01670022 10317 20167 51006

More Conditions Fewer Conditions

10-Day Weather Forecast

×

Almanac

Astronomie

Aug. 03, 2015 Lever Coucher
Temps réel
Crépuscule civil
Crépuscule nautique
Crépuscule astronomique
Lune
Durée de lumière visible
Longueur du jour
Tomorrow will be .
, % of the Moon is Illuminated

Extrêmes aujourd'hui

State Highs State Lows

Community

WunderPhotos

Upload Photos

1,843,595 Photos téléchargées !

WunderBlogs® & News

Nearby

Qualité de l'air

  Qualité de l'air Indice de la qualité de l'air Polluant
Not available.

Épaisseur de neige

Station Depth Altitude

Activité sismique

Ville Distance Mag. Time & Date
Minimum magnitude displayed is 2.5.

Températures des eaux côtières

Lieu Température

Stations

Stations météo à proximité

Emplacement de la station Température Refroidissement éolien Point de rosée Humidité Vent Precip. Alt. Mise à jour Type